sensor_id;sensor_type;location;lat;lon;timestamp;temperature;humidity
44509;DHT22;30214;52.246;14.408;2023-03-16T00:01:31;-0.80;99.90
44509;DHT22;30214;52.246;14.408;2023-03-16T00:03:58;-0.90;99.90
44509;DHT22;30214;52.246;14.408;2023-03-16T00:06:26;-0.90;99.90
44509;DHT22;30214;52.246;14.408;2023-03-16T00:08:53;-0.90;99.90
44509;DHT22;30214;52.246;14.408;2023-03-16T00:11:23;-0.90;99.90
44509;DHT22;30214;52.246;14.408;2023-03-16T00:13:50;-0.90;99.90
44509;DHT22;30214;52.246;14.408;2023-03-16T00:16:18;-0.90;99.90
44509;DHT22;30214;52.246;14.408;2023-03-16T00:18:45;-0.90;99.90
44509;DHT22;30214;52.246;14.408;2023-03-16T00:21:13;-0.90;99.90
44509;DHT22;30214;52.246;14.408;2023-03-16T00:23:41;-0.90;99.90
44509;DHT22;30214;52.246;14.408;2023-03-16T00:26:09;-0.90;99.90
44509;DHT22;30214;52.246;14.408;2023-03-16T00:28:37;-0.90;99.90
44509;DHT22;30214;52.246;14.408;2023-03-16T00:31:06;-0.90;99.90
44509;DHT22;30214;52.246;14.408;2023-03-16T00:33:36;-0.90;99.90
44509;DHT22;30214;52.246;14.408;2023-03-16T00:36:05;-0.90;99.90
44509;DHT22;30214;52.246;14.408;2023-03-16T00:38:35;-0.90;99.90
44509;DHT22;30214;52.246;14.408;2023-03-16T00:41:06;-0.90;99.90
44509;DHT22;30214;52.246;14.408;2023-03-16T00:43:35;-0.90;99.90
44509;DHT22;30214;52.246;14.408;2023-03-16T00:46:07;-0.80;99.90
44509;DHT22;30214;52.246;14.408;2023-03-16T00:48:37;-0.90;99.90
44509;DHT22;30214;52.246;14.408;2023-03-16T00:51:06;-0.90;99.90
44509;DHT22;30214;52.246;14.408;2023-03-16T00:53:35;-0.90;99.90
44509;DHT22;30214;52.246;14.408;2023-03-16T00:56:03;-1.00;99.90
44509;DHT22;30214;52.246;14.408;2023-03-16T00:58:32;-1.00;99.90
44509;DHT22;30214;52.246;14.408;2023-03-16T01:01:01;-1.00;99.90
44509;DHT22;30214;52.246;14.408;2023-03-16T01:03:29;-1.00;99.90
44509;DHT22;30214;52.246;14.408;2023-03-16T01:05:56;-1.10;99.90
44509;DHT22;30214;52.246;14.408;2023-03-16T01:08:25;-1.10;99.90
44509;DHT22;30214;52.246;14.408;2023-03-16T01:10:54;-1.10;99.90
44509;DHT22;30214;52.246;14.408;2023-03-16T01:13:22;-1.10;99.90
44509;DHT22;30214;52.246;14.408;2023-03-16T01:15:50;-1.10;99.90
44509;DHT22;30214;52.246;14.408;2023-03-16T01:18:17;-1.10;99.90
44509;DHT22;30214;52.246;14.408;2023-03-16T01:20:44;-1.20;99.90
44509;DHT22;30214;52.246;14.408;2023-03-16T01:23:15;-1.10;99.90
44509;DHT22;30214;52.246;14.408;2023-03-16T01:25:43;-1.20;99.90
44509;DHT22;30214;52.246;14.408;2023-03-16T01:28:18;-1.20;99.90
44509;DHT22;30214;52.246;14.408;2023-03-16T01:30:47;-1.20;99.90
44509;DHT22;30214;52.246;14.408;2023-03-16T01:33:14;-1.20;99.90
44509;DHT22;30214;52.246;14.408;2023-03-16T01:35:41;-1.30;99.90
44509;DHT22;30214;52.246;14.408;2023-03-16T01:38:08;-1.30;99.90
44509;DHT22;30214;52.246;14.408;2023-03-16T01:40:36;-1.30;99.90
44509;DHT22;30214;52.246;14.408;2023-03-16T01:43:05;-1.30;99.90
44509;DHT22;30214;52.246;14.408;2023-03-16T01:46:17;-1.30;99.90
44509;DHT22;30214;52.246;14.408;2023-03-16T01:48:54;-1.30;99.90
44509;DHT22;30214;52.246;14.408;2023-03-16T01:51:29;-1.30;99.90
44509;DHT22;30214;52.246;14.408;2023-03-16T01:54:03;-1.30;99.90
44509;DHT22;30214;52.246;14.408;2023-03-16T01:56:35;-1.30;99.90
44509;DHT22;30214;52.246;14.408;2023-03-16T01:59:09;-1.40;99.90
44509;DHT22;30214;52.246;14.408;2023-03-16T02:01:40;-1.40;99.90
44509;DHT22;30214;52.246;14.408;2023-03-16T02:04:27;-1.40;99.90
44509;DHT22;30214;52.246;14.408;2023-03-16T02:07:12;-1.40;99.90
44509;DHT22;30214;52.246;14.408;2023-03-16T02:09:44;-1.40;99.90
44509;DHT22;30214;52.246;14.408;2023-03-16T02:12:14;-1.40;99.90
44509;DHT22;30214;52.246;14.408;2023-03-16T02:14:47;-1.40;99.90
44509;DHT22;30214;52.246;14.408;2023-03-16T02:17:19;-1.40;99.90
44509;DHT22;30214;52.246;14.408;2023-03-16T02:19:55;-1.50;99.90
44509;DHT22;30214;52.246;14.408;2023-03-16T02:22:30;-1.50;99.90
44509;DHT22;30214;52.246;14.408;2023-03-16T02:25:01;-1.50;99.90
44509;DHT22;30214;52.246;14.408;2023-03-16T02:27:36;-1.50;99.90
44509;DHT22;30214;52.246;14.408;2023-03-16T02:30:10;-1.50;99.90
44509;DHT22;30214;52.246;14.408;2023-03-16T02:32:54;-1.60;99.90
44509;DHT22;30214;52.246;14.408;2023-03-16T02:35:22;-1.60;99.90
44509;DHT22;30214;52.246;14.408;2023-03-16T02:37:50;-1.60;99.90
44509;DHT22;30214;52.246;14.408;2023-03-16T02:40:21;-1.60;99.90
44509;DHT22;30214;52.246;14.408;2023-03-16T02:42:55;-1.60;99.90
44509;DHT22;30214;52.246;14.408;2023-03-16T02:45:33;-1.60;99.90
44509;DHT22;30214;52.246;14.408;2023-03-16T02:48:06;-1.60;99.90
44509;DHT22;30214;52.246;14.408;2023-03-16T02:50:43;-1.60;99.90
44509;DHT22;30214;52.246;14.408;2023-03-16T02:53:12;-1.60;99.90
44509;DHT22;30214;52.246;14.408;2023-03-16T02:55:39;-1.60;99.90
44509;DHT22;30214;52.246;14.408;2023-03-16T02:58:07;-1.70;99.90
44509;DHT22;30214;52.246;14.408;2023-03-16T03:00:36;-1.70;99.90
44509;DHT22;30214;52.246;14.408;2023-03-16T03:03:03;-1.70;99.90
44509;DHT22;30214;52.246;14.408;2023-03-16T03:05:31;-1.70;99.90
44509;DHT22;30214;52.246;14.408;2023-03-16T03:07:58;-1.70;99.90
44509;DHT22;30214;52.246;14.408;2023-03-16T03:10:26;-1.70;99.90
44509;DHT22;30214;52.246;14.408;2023-03-16T03:12:53;-1.80;99.90
44509;DHT22;30214;52.246;14.408;2023-03-16T03:15:20;-1.80;99.90
44509;DHT22;30214;52.246;14.408;2023-03-16T03:17:58;-1.80;99.90
44509;DHT22;30214;52.246;14.408;2023-03-16T03:20:28;-1.80;99.90
44509;DHT22;30214;52.246;14.408;2023-03-16T03:22:55;-1.80;99.90
44509;DHT22;30214;52.246;14.408;2023-03-16T03:25:22;-1.80;99.90
44509;DHT22;30214;52.246;14.408;2023-03-16T03:27:52;-1.80;99.90
44509;DHT22;30214;52.246;14.408;2023-03-16T03:30:23;-1.80;99.90
44509;DHT22;30214;52.246;14.408;2023-03-16T03:32:50;-1.80;99.90
44509;DHT22;30214;52.246;14.408;2023-03-16T03:35:20;-1.80;99.90
44509;DHT22;30214;52.246;14.408;2023-03-16T03:37:48;-1.80;99.90
44509;DHT22;30214;52.246;14.408;2023-03-16T03:40:17;-1.90;99.90
44509;DHT22;30214;52.246;14.408;2023-03-16T03:42:48;-1.90;99.90
44509;DHT22;30214;52.246;14.408;2023-03-16T03:45:16;-1.90;99.90
44509;DHT22;30214;52.246;14.408;2023-03-16T03:47:43;-2.00;99.90
44509;DHT22;30214;52.246;14.408;2023-03-16T03:50:16;-2.00;99.90
44509;DHT22;30214;52.246;14.408;2023-03-16T03:52:54;-1.90;99.90
44509;DHT22;30214;52.246;14.408;2023-03-16T03:55:22;-2.00;99.90
44509;DHT22;30214;52.246;14.408;2023-03-16T03:57:49;-2.00;99.90
44509;DHT22;30214;52.246;14.408;2023-03-16T04:00:16;-2.00;99.90
44509;DHT22;30214;52.246;14.408;2023-03-16T04:02:45;-2.00;99.90
44509;DHT22;30214;52.246;14.408;2023-03-16T04:05:26;-2.00;99.90
44509;DHT22;30214;52.246;14.408;2023-03-16T04:07:55;-2.00;99.90
44509;DHT22;30214;52.246;14.408;2023-03-16T04:10:23;-2.00;99.90
44509;DHT22;30214;52.246;14.408;2023-03-16T04:12:51;-2.00;99.90
44509;DHT22;30214;52.246;14.408;2023-03-16T04:15:18;-2.00;99.90
44509;DHT22;30214;52.246;14.408;2023-03-16T04:18:07;-2.00;99.90
44509;DHT22;30214;52.246;14.408;2023-03-16T04:20:34;-2.10;99.90
44509;DHT22;30214;52.246;14.408;2023-03-16T04:23:04;-2.10;99.90
44509;DHT22;30214;52.246;14.408;2023-03-16T04:25:33;-2.10;99.90
44509;DHT22;30214;52.246;14.408;2023-03-16T04:28:03;-2.10;99.90
44509;DHT22;30214;52.246;14.408;2023-03-16T04:30:33;-2.10;99.90
44509;DHT22;30214;52.246;14.408;2023-03-16T04:33:15;-2.20;99.90
44509;DHT22;30214;52.246;14.408;2023-03-16T04:35:43;-2.20;99.90
44509;DHT22;30214;52.246;14.408;2023-03-16T04:38:13;-2.20;99.90
44509;DHT22;30214;52.246;14.408;2023-03-16T04:40:50;-2.10;99.90
44509;DHT22;30214;52.246;14.408;2023-03-16T04:43:21;-1.80;99.90
44509;DHT22;30214;52.246;14.408;2023-03-16T04:45:50;-1.90;99.90
44509;DHT22;30214;52.246;14.408;2023-03-16T04:48:19;-2.00;99.90
44509;DHT22;30214;52.246;14.408;2023-03-16T04:50:47;-1.90;99.90
44509;DHT22;30214;52.246;14.408;2023-03-16T04:53:16;-1.80;99.90
44509;DHT22;30214;52.246;14.408;2023-03-16T04:55:46;-1.80;99.90
44509;DHT22;30214;52.246;14.408;2023-03-16T04:58:14;-1.90;99.90
44509;DHT22;30214;52.246;14.408;2023-03-16T05:00:41;-2.10;99.90
44509;DHT22;30214;52.246;14.408;2023-03-16T05:03:17;-2.20;99.90
44509;DHT22;30214;52.246;14.408;2023-03-16T05:05:45;-2.10;99.90
44509;DHT22;30214;52.246;14.408;2023-03-16T05:08:14;-1.20;99.90
44509;DHT22;30214;52.246;14.408;2023-03-16T05:10:45;-1.20;99.90
44509;DHT22;30214;52.246;14.408;2023-03-16T05:13:13;-1.30;99.90
44509;DHT22;30214;52.246;14.408;2023-03-16T05:15:41;-1.50;99.90
44509;DHT22;30214;52.246;14.408;2023-03-16T05:18:17;-1.60;99.90
44509;DHT22;30214;52.246;14.408;2023-03-16T05:20:44;-1.70;99.90
44509;DHT22;30214;52.246;14.408;2023-03-16T05:23:12;-1.70;99.90
44509;DHT22;30214;52.246;14.408;2023-03-16T05:25:47;-1.80;99.90
44509;DHT22;30214;52.246;14.408;2023-03-16T05:28:17;-1.90;99.90
44509;DHT22;30214;52.246;14.408;2023-03-16T05:30:50;-2.00;99.90
44509;DHT22;30214;52.246;14.408;2023-03-16T05:33:22;-2.10;99.90
44509;DHT22;30214;52.246;14.408;2023-03-16T05:35:55;-2.10;99.90
44509;DHT22;30214;52.246;14.408;2023-03-16T05:38:24;-2.10;99.90
44509;DHT22;30214;52.246;14.408;2023-03-16T05:40:54;-2.00;99.90
44509;DHT22;30214;52.246;14.408;2023-03-16T05:43:55;-2.00;99.90
44509;DHT22;30214;52.246;14.408;2023-03-16T05:46:26;-1.90;99.90
44509;DHT22;30214;52.246;14.408;2023-03-16T05:48:54;-2.00;99.90
44509;DHT22;30214;52.246;14.408;2023-03-16T05:51:22;-2.00;99.90
44509;DHT22;30214;52.246;14.408;2023-03-16T05:53:51;-1.90;99.90
44509;DHT22;30214;52.246;14.408;2023-03-16T05:56:30;-1.70;99.90
44509;DHT22;30214;52.246;14.408;2023-03-16T05:58:58;-1.60;99.90
44509;DHT22;30214;52.246;14.408;2023-03-16T06:01:26;-1.40;99.90
44509;DHT22;30214;52.246;14.408;2023-03-16T06:03:54;-1.30;99.90
44509;DHT22;30214;52.246;14.408;2023-03-16T06:06:25;-1.10;99.90
44509;DHT22;30214;52.246;14.408;2023-03-16T06:08:58;-0.90;99.90
44509;DHT22;30214;52.246;14.408;2023-03-16T06:11:27;-0.70;99.90
44509;DHT22;30214;52.246;14.408;2023-03-16T06:13:56;-0.50;99.90
44509;DHT22;30214;52.246;14.408;2023-03-16T06:16:23;-0.30;99.90
44509;DHT22;30214;52.246;14.408;2023-03-16T06:18:50;-0.20;99.90
44509;DHT22;30214;52.246;14.408;2023-03-16T06:21:17;0.10;99.90
44509;DHT22;30214;52.246;14.408;2023-03-16T06:23:48;0.10;99.90
44509;DHT22;30214;52.246;14.408;2023-03-16T06:26:16;0.10;99.90
44509;DHT22;30214;52.246;14.408;2023-03-16T06:28:46;-0.10;99.90
44509;DHT22;30214;52.246;14.408;2023-03-16T06:31:15;-0.10;99.90
44509;DHT22;30214;52.246;14.408;2023-03-16T06:33:44;0.10;99.90
44509;DHT22;30214;52.246;14.408;2023-03-16T06:36:12;0.20;99.90
44509;DHT22;30214;52.246;14.408;2023-03-16T06:38:44;0.50;99.90
44509;DHT22;30214;52.246;14.408;2023-03-16T06:41:25;0.70;99.90
44509;DHT22;30214;52.246;14.408;2023-03-16T06:43:58;1.00;99.90
44509;DHT22;30214;52.246;14.408;2023-03-16T06:46:27;1.10;99.90
44509;DHT22;30214;52.246;14.408;2023-03-16T06:48:56;1.40;99.90
44509;DHT22;30214;52.246;14.408;2023-03-16T06:51:26;1.50;99.90
44509;DHT22;30214;52.246;14.408;2023-03-16T06:53:53;1.60;99.90
44509;DHT22;30214;52.246;14.408;2023-03-16T06:56:20;1.90;99.90
44509;DHT22;30214;52.246;14.408;2023-03-16T06:58:49;2.20;99.90
44509;DHT22;30214;52.246;14.408;2023-03-16T07:01:17;2.40;99.90
44509;DHT22;30214;52.246;14.408;2023-03-16T07:03:45;2.50;99.90
44509;DHT22;30214;52.246;14.408;2023-03-16T07:06:21;2.50;99.90
44509;DHT22;30214;52.246;14.408;2023-03-16T07:08:48;2.50;99.90
44509;DHT22;30214;52.246;14.408;2023-03-16T07:11:17;2.50;99.90
44509;DHT22;30214;52.246;14.408;2023-03-16T07:13:44;2.60;99.90
44509;DHT22;30214;52.246;14.408;2023-03-16T07:16:13;2.80;99.90
44509;DHT22;30214;52.246;14.408;2023-03-16T07:18:40;2.90;99.90
44509;DHT22;30214;52.246;14.408;2023-03-16T07:21:12;3.00;99.90
44509;DHT22;30214;52.246;14.408;2023-03-16T07:23:39;3.00;99.90
44509;DHT22;30214;52.246;14.408;2023-03-16T07:26:08;3.00;99.90
44509;DHT22;30214;52.246;14.408;2023-03-16T07:28:44;2.90;99.90
44509;DHT22;30214;52.246;14.408;2023-03-16T07:31:11;2.90;99.90
44509;DHT22;30214;52.246;14.408;2023-03-16T07:33:40;2.90;99.90
44509;DHT22;30214;52.246;14.408;2023-03-16T07:36:12;2.90;99.90
44509;DHT22;30214;52.246;14.408;2023-03-16T07:38:45;3.00;99.90
44509;DHT22;30214;52.246;14.408;2023-03-16T07:41:12;3.10;99.90
44509;DHT22;30214;52.246;14.408;2023-03-16T07:43:40;3.20;99.90
44509;DHT22;30214;52.246;14.408;2023-03-16T07:46:08;3.20;99.90
44509;DHT22;30214;52.246;14.408;2023-03-16T07:48:38;3.00;99.90
44509;DHT22;30214;52.246;14.408;2023-03-16T07:51:07;2.90;99.90
44509;DHT22;30214;52.246;14.408;2023-03-16T07:53:36;3.00;99.90
44509;DHT22;30214;52.246;14.408;2023-03-16T07:56:25;3.10;99.90
44509;DHT22;30214;52.246;14.408;2023-03-16T07:58:56;3.10;99.90
44509;DHT22;30214;52.246;14.408;2023-03-16T08:01:23;3.30;99.90
44509;DHT22;30214;52.246;14.408;2023-03-16T08:03:50;3.30;99.90
44509;DHT22;30214;52.246;14.408;2023-03-16T08:06:18;3.60;99.90
44509;DHT22;30214;52.246;14.408;2023-03-16T08:08:48;3.70;99.90
44509;DHT22;30214;52.246;14.408;2023-03-16T08:11:22;3.90;99.90
44509;DHT22;30214;52.246;14.408;2023-03-16T08:13:55;4.10;99.90
44509;DHT22;30214;52.246;14.408;2023-03-16T08:16:29;4.40;99.90
44509;DHT22;30214;52.246;14.408;2023-03-16T08:18:57;4.40;99.90
44509;DHT22;30214;52.246;14.408;2023-03-16T08:21:26;4.40;99.90
44509;DHT22;30214;52.246;14.408;2023-03-16T08:23:56;4.50;99.90
44509;DHT22;30214;52.246;14.408;2023-03-16T08:26:23;4.60;99.90
44509;DHT22;30214;52.246;14.408;2023-03-16T08:28:55;4.80;99.90
44509;DHT22;30214;52.246;14.408;2023-03-16T08:31:27;4.80;99.90
44509;DHT22;30214;52.246;14.408;2023-03-16T08:34:10;4.90;99.90
44509;DHT22;30214;52.246;14.408;2023-03-16T08:36:42;4.90;99.90
44509;DHT22;30214;52.246;14.408;2023-03-16T08:39:12;4.90;99.90
44509;DHT22;30214;52.246;14.408;2023-03-16T08:41:44;5.00;99.90
44509;DHT22;30214;52.246;14.408;2023-03-16T08:44:35;5.10;99.90
44509;DHT22;30214;52.246;14.408;2023-03-16T08:47:02;5.40;99.90
44509;DHT22;30214;52.246;14.408;2023-03-16T08:49:32;5.50;99.90
44509;DHT22;30214;52.246;14.408;2023-03-16T08:52:07;5.60;99.90
44509;DHT22;30214;52.246;14.408;2023-03-16T08:54:39;5.70;99.90
44509;DHT22;30214;52.246;14.408;2023-03-16T08:57:09;5.70;99.90
44509;DHT22;30214;52.246;14.408;2023-03-16T08:59:36;5.70;99.90
44509;DHT22;30214;52.246;14.408;2023-03-16T09:02:03;5.90;99.90
44509;DHT22;30214;52.246;14.408;2023-03-16T09:04:31;6.00;99.90
44509;DHT22;30214;52.246;14.408;2023-03-16T09:06:58;6.00;99.90
44509;DHT22;30214;52.246;14.408;2023-03-16T09:09:25;6.10;99.70
44509;DHT22;30214;52.246;14.408;2023-03-16T09:11:56;6.30;99.90
44509;DHT22;30214;52.246;14.408;2023-03-16T09:14:31;6.40;99.70
44509;DHT22;30214;52.246;14.408;2023-03-16T09:17:01;6.60;99.20
44509;DHT22;30214;52.246;14.408;2023-03-16T09:19:31;6.70;99.00
44509;DHT22;30214;52.246;14.408;2023-03-16T09:22:00;6.60;98.50
44509;DHT22;30214;52.246;14.408;2023-03-16T09:24:29;6.60;98.80
44509;DHT22;30214;52.246;14.408;2023-03-16T09:27:03;6.70;99.30
44509;DHT22;30214;52.246;14.408;2023-03-16T09:29:35;6.70;97.80
44509;DHT22;30214;52.246;14.408;2023-03-16T09:32:07;6.70;97.60
44509;DHT22;30214;52.246;14.408;2023-03-16T09:34:36;6.60;97.90
44509;DHT22;30214;52.246;14.408;2023-03-16T09:37:08;6.60;97.10
44509;DHT22;30214;52.246;14.408;2023-03-16T09:39:37;6.70;97.60
44509;DHT22;30214;52.246;14.408;2023-03-16T09:42:18;6.80;97.60
44509;DHT22;30214;52.246;14.408;2023-03-16T09:45:02;6.80;97.20
44509;DHT22;30214;52.246;14.408;2023-03-16T09:47:35;6.90;96.50
44509;DHT22;30214;52.246;14.408;2023-03-16T09:50:14;7.20;95.50
44509;DHT22;30214;52.246;14.408;2023-03-16T09:52:50;7.40;93.90
44509;DHT22;30214;52.246;14.408;2023-03-16T09:55:27;7.40;95.20
44509;DHT22;30214;52.246;14.408;2023-03-16T09:58:04;7.60;93.90
44509;DHT22;30214;52.246;14.408;2023-03-16T10:00:51;7.70;93.30
44509;DHT22;30214;52.246;14.408;2023-03-16T10:03:37;7.70;90.20
44509;DHT22;30214;52.246;14.408;2023-03-16T10:06:42;7.60;91.70
44509;DHT22;30214;52.246;14.408;2023-03-16T10:09:25;7.80;92.10
44509;DHT22;30214;52.246;14.408;2023-03-16T10:12:00;7.80;83.90
44509;DHT22;30214;52.246;14.408;2023-03-16T10:14:39;7.90;86.10
44509;DHT22;30214;52.246;14.408;2023-03-16T10:17:14;8.10;89.50
44509;DHT22;30214;52.246;14.408;2023-03-16T10:19:51;8.30;88.90
44509;DHT22;30214;52.246;14.408;2023-03-16T10:22:29;8.30;87.60
44509;DHT22;30214;52.246;14.408;2023-03-16T10:25:06;8.40;71.70
44509;DHT22;30214;52.246;14.408;2023-03-16T10:27:41;8.30;71.60
44509;DHT22;30214;52.246;14.408;2023-03-16T10:30:23;8.30;73.50
44509;DHT22;30214;52.246;14.408;2023-03-16T10:32:55;8.30;80.70
44509;DHT22;30214;52.246;14.408;2023-03-16T10:35:42;8.40;79.10
44509;DHT22;30214;52.246;14.408;2023-03-16T10:38:29;8.40;74.70
44509;DHT22;30214;52.246;14.408;2023-03-16T10:41:13;8.30;77.70
44509;DHT22;30214;52.246;14.408;2023-03-16T10:43:51;8.40;80.00
44509;DHT22;30214;52.246;14.408;2023-03-16T10:46:24;8.40;75.80
44509;DHT22;30214;52.246;14.408;2023-03-16T10:48:56;8.50;74.30
44509;DHT22;30214;52.246;14.408;2023-03-16T10:51:27;8.70;85.30
44509;DHT22;30214;52.246;14.408;2023-03-16T10:54:02;8.70;73.50
44509;DHT22;30214;52.246;14.408;2023-03-16T10:56:34;8.70;76.10
44509;DHT22;30214;52.246;14.408;2023-03-16T10:59:13;8.70;78.00
44509;DHT22;30214;52.246;14.408;2023-03-16T11:01:46;8.70;73.60
44509;DHT22;30214;52.246;14.408;2023-03-16T11:04:14;8.70;76.60
44509;DHT22;30214;52.246;14.408;2023-03-16T11:06:52;8.70;76.00
44509;DHT22;30214;52.246;14.408;2023-03-16T11:09:22;8.70;79.60
44509;DHT22;30214;52.246;14.408;2023-03-16T11:11:52;8.80;72.00
44509;DHT22;30214;52.246;14.408;2023-03-16T11:14:27;8.70;73.60
44509;DHT22;30214;52.246;14.408;2023-03-16T11:16:59;8.80;73.40
44509;DHT22;30214;52.246;14.408;2023-03-16T11:19:36;8.70;70.10
44509;DHT22;30214;52.246;14.408;2023-03-16T11:22:11;8.60;74.20
44509;DHT22;30214;52.246;14.408;2023-03-16T11:24:44;8.60;70.70
44509;DHT22;30214;52.246;14.408;2023-03-16T11:27:20;8.70;67.30
44509;DHT22;30214;52.246;14.408;2023-03-16T11:30:04;8.80;69.00
44509;DHT22;30214;52.246;14.408;2023-03-16T11:32:37;8.80;71.10
44509;DHT22;30214;52.246;14.408;2023-03-16T11:35:13;8.80;68.20
44509;DHT22;30214;52.246;14.408;2023-03-16T11:37:50;8.80;68.30
44509;DHT22;30214;52.246;14.408;2023-03-16T11:40:46;8.90;69.20
44509;DHT22;30214;52.246;14.408;2023-03-16T11:43:35;8.90;65.70
44509;DHT22;30214;52.246;14.408;2023-03-16T11:46:14;9.00;67.20
44509;DHT22;30214;52.246;14.408;2023-03-16T11:48:52;9.00;65.50
44509;DHT22;30214;52.246;14.408;2023-03-16T11:51:34;9.00;60.30
44509;DHT22;30214;52.246;14.408;2023-03-16T11:54:12;8.70;60.20
44509;DHT22;30214;52.246;14.408;2023-03-16T11:56:49;8.70;62.40
44509;DHT22;30214;52.246;14.408;2023-03-16T11:59:40;8.70;66.00
44509;DHT22;30214;52.246;14.408;2023-03-16T12:02:29;8.80;66.10
44509;DHT22;30214;52.246;14.408;2023-03-16T12:05:31;8.90;64.50
44509;DHT22;30214;52.246;14.408;2023-03-16T12:08:13;9.00;64.30
44509;DHT22;30214;52.246;14.408;2023-03-16T12:10:51;9.10;62.30
44509;DHT22;30214;52.246;14.408;2023-03-16T12:13:31;9.10;62.00
44509;DHT22;30214;52.246;14.408;2023-03-16T12:16:10;9.00;61.20
44509;DHT22;30214;52.246;14.408;2023-03-16T12:18:44;9.10;60.90
44509;DHT22;30214;52.246;14.408;2023-03-16T12:21:18;9.10;59.30
44509;DHT22;30214;52.246;14.408;2023-03-16T12:23:49;9.20;58.50
44509;DHT22;30214;52.246;14.408;2023-03-16T12:26:20;9.20;55.60
44509;DHT22;30214;52.246;14.408;2023-03-16T12:28:51;9.10;55.70
44509;DHT22;30214;52.246;14.408;2023-03-16T12:31:24;9.20;57.90
44509;DHT22;30214;52.246;14.408;2023-03-16T12:34:02;9.20;56.10
44509;DHT22;30214;52.246;14.408;2023-03-16T12:36:54;9.10;56.80
44509;DHT22;30214;52.246;14.408;2023-03-16T12:39:55;9.00;55.30
44509;DHT22;30214;52.246;14.408;2023-03-16T12:42:43;9.00;57.90
44509;DHT22;30214;52.246;14.408;2023-03-16T12:45:31;8.90;57.70
44509;DHT22;30214;52.246;14.408;2023-03-16T12:48:12;9.10;55.50
44509;DHT22;30214;52.246;14.408;2023-03-16T12:50:50;9.10;51.10
44509;DHT22;30214;52.246;14.408;2023-03-16T12:53:38;9.00;55.30
44509;DHT22;30214;52.246;14.408;2023-03-16T12:56:11;9.00;55.80
44509;DHT22;30214;52.246;14.408;2023-03-16T12:58:43;9.10;57.10
44509;DHT22;30214;52.246;14.408;2023-03-16T13:01:12;9.00;56.00
44509;DHT22;30214;52.246;14.408;2023-03-16T13:03:42;9.00;56.30
44509;DHT22;30214;52.246;14.408;2023-03-16T13:06:21;9.00;54.10
44509;DHT22;30214;52.246;14.408;2023-03-16T13:08:54;8.90;54.90
44509;DHT22;30214;52.246;14.408;2023-03-16T13:11:24;8.90;55.90
44509;DHT22;30214;52.246;14.408;2023-03-16T13:14:04;8.80;54.50
44509;DHT22;30214;52.246;14.408;2023-03-16T13:16:37;8.80;54.30
44509;DHT22;30214;52.246;14.408;2023-03-16T13:19:24;8.90;55.00
44509;DHT22;30214;52.246;14.408;2023-03-16T13:22:04;9.00;54.50
44509;DHT22;30214;52.246;14.408;2023-03-16T13:24:51;9.10;56.30
44509;DHT22;30214;52.246;14.408;2023-03-16T13:27:22;9.10;54.00
44509;DHT22;30214;52.246;14.408;2023-03-16T13:29:55;9.10;54.90
44509;DHT22;30214;52.246;14.408;2023-03-16T13:32:25;9.10;54.70
44509;DHT22;30214;52.246;14.408;2023-03-16T13:34:58;9.10;54.20
44509;DHT22;30214;52.246;14.408;2023-03-16T13:37:27;9.10;54.50
44509;DHT22;30214;52.246;14.408;2023-03-16T13:39:58;9.10;52.70
44509;DHT22;30214;52.246;14.408;2023-03-16T13:42:28;8.90;52.90
44509;DHT22;30214;52.246;14.408;2023-03-16T13:44:56;8.90;54.30
44509;DHT22;30214;52.246;14.408;2023-03-16T13:47:26;8.80;54.80
44509;DHT22;30214;52.246;14.408;2023-03-16T13:49:56;8.80;55.00
44509;DHT22;30214;52.246;14.408;2023-03-16T13:52:26;8.90;56.10
44509;DHT22;30214;52.246;14.408;2023-03-16T13:54:57;9.00;53.10
44509;DHT22;30214;52.246;14.408;2023-03-16T13:57:28;9.10;54.20
44509;DHT22;30214;52.246;14.408;2023-03-16T14:00:02;9.10;52.00
44509;DHT22;30214;52.246;14.408;2023-03-16T14:02:39;9.00;51.50
44509;DHT22;30214;52.246;14.408;2023-03-16T14:05:15;8.80;51.40
44509;DHT22;30214;52.246;14.408;2023-03-16T14:07:45;8.80;51.60
44509;DHT22;30214;52.246;14.408;2023-03-16T14:10:15;8.90;50.70
44509;DHT22;30214;52.246;14.408;2023-03-16T14:12:50;8.90;50.30
44509;DHT22;30214;52.246;14.408;2023-03-16T14:15:26;9.00;49.60
44509;DHT22;30214;52.246;14.408;2023-03-16T14:18:09;9.00;49.80
44509;DHT22;30214;52.246;14.408;2023-03-16T14:20:40;9.00;48.70
44509;DHT22;30214;52.246;14.408;2023-03-16T14:23:27;9.00;60.60
44509;DHT22;30214;52.246;14.408;2023-03-16T14:26:03;9.00;48.40
44509;DHT22;30214;52.246;14.408;2023-03-16T14:28:38;8.90;48.80
44509;DHT22;30214;52.246;14.408;2023-03-16T14:31:10;8.90;50.60
44509;DHT22;30214;52.246;14.408;2023-03-16T14:33:42;8.90;48.60
44509;DHT22;30214;52.246;14.408;2023-03-16T14:36:13;8.90;46.80
44509;DHT22;30214;52.246;14.408;2023-03-16T14:38:44;8.90;46.70
44509;DHT22;30214;52.246;14.408;2023-03-16T14:41:20;8.90;47.00
44509;DHT22;30214;52.246;14.408;2023-03-16T14:43:54;8.80;47.80
44509;DHT22;30214;52.246;14.408;2023-03-16T14:46:26;8.80;47.00
44509;DHT22;30214;52.246;14.408;2023-03-16T14:49:02;8.90;47.80
44509;DHT22;30214;52.246;14.408;2023-03-16T14:51:35;8.90;46.40
44509;DHT22;30214;52.246;14.408;2023-03-16T14:54:10;8.80;46.70
44509;DHT22;30214;52.246;14.408;2023-03-16T14:56:39;8.80;46.40
44509;DHT22;30214;52.246;14.408;2023-03-16T14:59:08;8.70;46.40
44509;DHT22;30214;52.246;14.408;2023-03-16T15:01:35;8.60;49.10
44509;DHT22;30214;52.246;14.408;2023-03-16T15:04:04;8.70;48.80
44509;DHT22;30214;52.246;14.408;2023-03-16T15:06:32;8.70;48.90
44509;DHT22;30214;52.246;14.408;2023-03-16T15:08:59;8.70;50.10
44509;DHT22;30214;52.246;14.408;2023-03-16T15:11:27;8.80;51.30
44509;DHT22;30214;52.246;14.408;2023-03-16T15:13:57;8.70;49.60
44509;DHT22;30214;52.246;14.408;2023-03-16T15:16:39;8.70;48.80
44509;DHT22;30214;52.246;14.408;2023-03-16T15:19:07;8.70;49.70
44509;DHT22;30214;52.246;14.408;2023-03-16T15:21:34;8.80;50.50
44509;DHT22;30214;52.246;14.408;2023-03-16T15:24:02;8.90;50.50
44509;DHT22;30214;52.246;14.408;2023-03-16T15:26:29;8.90;51.50
44509;DHT22;30214;52.246;14.408;2023-03-16T15:28:58;8.80;50.60
44509;DHT22;30214;52.246;14.408;2023-03-16T15:31:25;8.80;52.50
44509;DHT22;30214;52.246;14.408;2023-03-16T15:33:53;8.80;52.00
44509;DHT22;30214;52.246;14.408;2023-03-16T15:36:21;8.80;52.70
44509;DHT22;30214;52.246;14.408;2023-03-16T15:38:50;8.70;53.30
44509;DHT22;30214;52.246;14.408;2023-03-16T15:41:19;8.80;51.90
44509;DHT22;30214;52.246;14.408;2023-03-16T15:43:48;8.70;50.20
44509;DHT22;30214;52.246;14.408;2023-03-16T15:46:18;8.70;52.30
44509;DHT22;30214;52.246;14.408;2023-03-16T15:48:45;8.60;53.30
44509;DHT22;30214;52.246;14.408;2023-03-16T15:51:19;8.50;51.70
44509;DHT22;30214;52.246;14.408;2023-03-16T15:53:52;8.50;52.90
44509;DHT22;30214;52.246;14.408;2023-03-16T15:56:23;8.50;52.60
44509;DHT22;30214;52.246;14.408;2023-03-16T15:58:55;8.70;52.30